SBI275 UUEE-LGAV
Flight info
| Callsign | SBI275 |
|---|---|
| Flight time | N/A |
| Altitude | 34000 |
| Route | SOTOG3H SOTOG N181 NUNTA/N0444F340 DCT LAPKA DCT UPAMA DCT NIKTI/N0449F350 UY505 PEREN UV652 SKP UM749 ROPOX |
| Aircraft | A321/M-SDE3FGHIRWY/LB1 |
Departure
| Time | 2026-05-03 20:40 |
|---|---|
| Airport | Sheremetyevo International Airport (UUEE) |
Arrival
| Time | N/A |
|---|---|
| Airport | Athens Eleftherios Venizelos International Airport (LGAV) |
| Time | Latitude | Longitude | Altitude | Speed | Heading |
|---|---|---|---|---|---|
| 2026-05-03 20:15 | 55.97788 | 37.41738 | 630 ft | 0 kts | 22° |
| 2026-05-03 20:29 | 55.97782 | 37.41733 | 630 ft | 3 kts | 22° |
| 2026-05-03 20:30 | 55.97761 | 37.41717 | 630 ft | 3 kts | 33° |
| 2026-05-03 20:30 | 55.97749 | 37.41702 | 630 ft | 3 kts | 62° |
| 2026-05-03 20:30 | 55.97743 | 37.41670 | 633 ft | 3 kts | 76° |
| 2026-05-03 20:30 | 55.97738 | 37.41630 | 631 ft | 3 kts | 77° |
| 2026-05-03 20:31 | 55.97736 | 37.41616 | 630 ft | 0 kts | 76° |
| 2026-05-03 20:33 | 55.97737 | 37.41616 | 630 ft | 0 kts | 76° |
| 2026-05-03 20:33 | 55.97737 | 37.41619 | 630 ft | 0 kts | 76° |
| 2026-05-03 20:33 | 55.97740 | 37.41641 | 633 ft | 5 kts | 76° |
| 2026-05-03 20:33 | 55.97733 | 37.41738 | 630 ft | 11 kts | 98° |
| 2026-05-03 20:34 | 55.97747 | 37.41889 | 630 ft | 13 kts | 74° |
| 2026-05-03 20:34 | 55.97774 | 37.42045 | 635 ft | 14 kts | 66° |
| 2026-05-03 20:34 | 55.97810 | 37.42210 | 634 ft | 15 kts | 77° |
| 2026-05-03 20:34 | 55.97836 | 37.42397 | 637 ft | 16 kts | 75° |
| 2026-05-03 20:35 | 55.97866 | 37.42598 | 635 ft | 17 kts | 75° |
| 2026-05-03 20:35 | 55.97900 | 37.42812 | 633 ft | 18 kts | 75° |
| 2026-05-03 20:35 | 55.97934 | 37.43041 | 635 ft | 20 kts | 75° |
| 2026-05-03 20:35 | 55.97970 | 37.43282 | 632 ft | 21 kts | 75° |
| 2026-05-03 20:36 | 55.98009 | 37.43540 | 634 ft | 22 kts | 75° |
| 2026-05-03 20:36 | 55.98040 | 37.43749 | 634 ft | 13 kts | 75° |
| 2026-05-03 20:36 | 55.98056 | 37.43909 | 630 ft | 14 kts | 97° |
| 2026-05-03 20:36 | 55.97982 | 37.44003 | 634 ft | 14 kts | 165° |
| 2026-05-03 20:37 | 55.97910 | 37.44037 | 630 ft | 0 kts | 165° |
| 2026-05-03 20:38 | 55.97888 | 37.44047 | 633 ft | 5 kts | 165° |
| 2026-05-03 20:38 | 55.97837 | 37.44070 | 635 ft | 10 kts | 168° |
| 2026-05-03 20:38 | 55.97779 | 37.44012 | 633 ft | 8 kts | 249° |
| 2026-05-03 20:38 | 55.97774 | 37.43981 | 631 ft | 0 kts | 253° |
| 2026-05-03 20:39 | 55.97763 | 37.43919 | 636 ft | 28 kts | 253° |
| 2026-05-03 20:39 | 55.97647 | 37.43163 | 635 ft | 95 kts | 254° |
| 2026-05-03 20:39 | 55.97426 | 37.41705 | 636 ft | 146 kts | 254° |
| 2026-05-03 20:39 | 55.97106 | 37.39735 | 697 ft | 179 kts | 252° |
| 2026-05-03 20:40 | 55.96767 | 37.37627 | 1288 ft | 179 kts | 254° |
| 2026-05-03 20:40 | 55.96445 | 37.35489 | 1940 ft | 178 kts | 255° |
| 2026-05-03 20:40 | 55.96111 | 37.33238 | 2098 ft | 197 kts | 256° |
| 2026-05-03 20:40 | 55.95748 | 37.30769 | 2215 ft | 216 kts | 256° |
| 2026-05-03 20:41 | 55.95336 | 37.28000 | 2231 ft | 245 kts | 255° |
| 2026-05-03 20:41 | 55.94872 | 37.25059 | 2839 ft | 249 kts | 255° |
| 2026-05-03 20:41 | 55.94390 | 37.22075 | 3485 ft | 252 kts | 256° |
| 2026-05-03 20:41 | 55.93899 | 37.19048 | 4142 ft | 255 kts | 256° |
| 2026-05-03 20:42 | 55.93405 | 37.15984 | 4784 ft | 258 kts | 256° |
| 2026-05-03 20:42 | 55.92911 | 37.12896 | 5418 ft | 260 kts | 256° |
| 2026-05-03 20:42 | 55.92416 | 37.09776 | 6062 ft | 262 kts | 256° |
| 2026-05-03 20:42 | 55.91936 | 37.06627 | 6673 ft | 264 kts | 261° |
| 2026-05-03 20:43 | 55.91872 | 37.03363 | 7245 ft | 264 kts | 280° |
| 2026-05-03 20:43 | 55.92421 | 37.00243 | 7831 ft | 266 kts | 298° |
| 2026-05-03 20:43 | 55.93533 | 36.97614 | 8419 ft | 269 kts | 317° |
| 2026-05-03 20:43 | 55.95048 | 36.95637 | 9051 ft | 270 kts | 324° |
| 2026-05-03 20:44 | 55.96609 | 36.93733 | 9654 ft | 272 kts | 326° |
| 2026-05-03 20:44 | 55.98354 | 36.92339 | 9938 ft | 278 kts | 345° |
| 2026-05-03 20:44 | 56.00293 | 36.92224 | 10045 ft | 285 kts | 8° |
| 2026-05-03 20:44 | 56.02147 | 36.93480 | 10563 ft | 293 kts | 28° |
| 2026-05-03 20:45 | 56.03873 | 36.95453 | 11085 ft | 296 kts | 30° |
| 2026-05-03 20:45 | 56.05608 | 36.97471 | 11612 ft | 299 kts | 30° |
| 2026-05-03 20:45 | 56.07356 | 36.99514 | 12133 ft | 301 kts | 30° |
| 2026-05-03 20:45 | 56.09116 | 37.01580 | 12652 ft | 304 kts | 31° |
| 2026-05-03 20:46 | 56.10741 | 37.04048 | 13152 ft | 311 kts | 45° |
| 2026-05-03 20:46 | 56.12007 | 37.07251 | 13545 ft | 322 kts | 60° |
| 2026-05-03 20:46 | 56.12811 | 37.11106 | 13707 ft | 339 kts | 75° |
| 2026-05-03 20:46 | 56.13382 | 37.15259 | 14038 ft | 345 kts | 74° |
| 2026-05-03 20:47 | 56.13967 | 37.19447 | 14481 ft | 348 kts | 74° |
| 2026-05-03 20:47 | 56.14540 | 37.23634 | 14829 ft | 351 kts | 78° |
| 2026-05-03 20:47 | 56.14617 | 37.28004 | 14908 ft | 353 kts | 97° |
| 2026-05-03 20:47 | 56.13906 | 37.32210 | 14915 ft | 353 kts | 117° |
| 2026-05-03 20:48 | 56.12462 | 37.35775 | 15218 ft | 355 kts | 137° |
| 2026-05-03 20:48 | 56.10478 | 37.38394 | 15670 ft | 355 kts | 154° |
| 2026-05-03 20:48 | 56.08239 | 37.40329 | 16117 ft | 358 kts | 156° |
| 2026-05-03 20:48 | 56.05978 | 37.42235 | 16557 ft | 360 kts | 156° |
| 2026-05-03 20:49 | 56.03697 | 37.44144 | 16999 ft | 363 kts | 156° |
| 2026-05-03 20:49 | 56.01391 | 37.46069 | 17438 ft | 366 kts | 156° |
| 2026-05-03 20:49 | 55.99076 | 37.48007 | 17875 ft | 369 kts | 154° |
| 2026-05-03 20:49 | 55.96925 | 37.50446 | 18263 ft | 373 kts | 140° |
| 2026-05-03 20:50 | 55.95112 | 37.53763 | 18623 ft | 375 kts | 126° |
| 2026-05-03 20:50 | 55.93772 | 37.57750 | 18985 ft | 376 kts | 112° |
| 2026-05-03 20:50 | 55.92977 | 37.62184 | 19354 ft | 376 kts | 99° |
| 2026-05-03 20:50 | 55.92485 | 37.66793 | 19731 ft | 377 kts | 98° |
| 2026-05-03 20:51 | 55.91969 | 37.71388 | 20143 ft | 379 kts | 102° |
| 2026-05-03 20:51 | 55.91105 | 37.75839 | 20518 ft | 382 kts | 113° |
| 2026-05-03 20:51 | 55.89858 | 37.79986 | 20879 ft | 385 kts | 117° |
| 2026-05-03 20:51 | 55.88540 | 37.84160 | 21243 ft | 387 kts | 117° |
| 2026-05-03 20:52 | 55.87219 | 37.88355 | 21601 ft | 389 kts | 117° |
| 2026-05-03 20:52 | 55.85894 | 37.92586 | 21956 ft | 391 kts | 117° |
| 2026-05-03 20:52 | 55.84317 | 37.96545 | 22279 ft | 396 kts | 133° |
| 2026-05-03 20:52 | 55.82179 | 37.99578 | 22603 ft | 399 kts | 150° |
| 2026-05-03 20:53 | 55.79585 | 38.01414 | 22904 ft | 401 kts | 168° |
| 2026-05-03 20:53 | 55.76831 | 38.01821 | 23183 ft | 401 kts | 186° |
| 2026-05-03 20:53 | 55.74081 | 38.00769 | 23463 ft | 400 kts | 204° |
| 2026-05-03 20:53 | 55.71666 | 37.98401 | 23686 ft | 396 kts | 221° |
| 2026-05-03 20:54 | 55.69665 | 37.95076 | 23910 ft | 395 kts | 229° |
| 2026-05-03 20:54 | 55.65777 | 37.88214 | 24381 ft | 399 kts | 224° |
| 2026-05-03 20:54 | 55.63539 | 37.85255 | 24616 ft | 404 kts | 213° |
| 2026-05-03 20:55 | 55.61097 | 37.82743 | 24848 ft | 406 kts | 213° |
| 2026-05-03 20:55 | 55.58653 | 37.80229 | 25080 ft | 408 kts | 213° |
| 2026-05-03 20:55 | 55.56197 | 37.77692 | 25328 ft | 409 kts | 213° |
| 2026-05-03 20:55 | 55.53745 | 37.75154 | 25611 ft | 409 kts | 213° |
| 2026-05-03 20:56 | 55.51290 | 37.72613 | 25858 ft | 410 kts | 213° |
| 2026-05-03 20:56 | 55.48847 | 37.69992 | 26087 ft | 410 kts | 215° |
| 2026-05-03 20:56 | 55.46471 | 37.67217 | 26320 ft | 411 kts | 217° |
| 2026-05-03 20:56 | 55.44125 | 37.64322 | 26548 ft | 412 kts | 218° |
| 2026-05-03 20:57 | 55.41820 | 37.61419 | 26772 ft | 413 kts | 218° |
| 2026-05-03 20:57 | 55.39474 | 37.58472 | 26989 ft | 415 kts | 218° |
| 2026-05-03 20:57 | 55.37106 | 37.55533 | 27202 ft | 416 kts | 218° |
| 2026-05-03 20:57 | 55.34830 | 37.52381 | 27378 ft | 418 kts | 222° |
| 2026-05-03 20:58 | 55.32575 | 37.49098 | 27504 ft | 422 kts | 222° |
| 2026-05-03 20:58 | 55.30300 | 37.45798 | 27639 ft | 426 kts | 222° |
| 2026-05-03 20:58 | 55.28033 | 37.42520 | 27778 ft | 429 kts | 222° |
| 2026-05-03 20:58 | 55.25716 | 37.39175 | 27913 ft | 433 kts | 222° |
| 2026-05-03 20:59 | 55.23376 | 37.35797 | 28043 ft | 437 kts | 222° |
| 2026-05-03 20:59 | 55.21015 | 37.32395 | 28203 ft | 440 kts | 222° |
| 2026-05-03 20:59 | 55.18639 | 37.28977 | 28326 ft | 444 kts | 222° |
| 2026-05-03 20:59 | 55.16246 | 37.25536 | 28454 ft | 447 kts | 221° |
| 2026-05-03 21:00 | 55.13836 | 37.22078 | 28605 ft | 450 kts | 221° |
| 2026-05-03 21:00 | 55.13017 | 37.20903 | 28646 ft | 451 kts | 221° |
| 2026-05-03 21:00 | 55.08960 | 37.15101 | 28878 ft | 456 kts | 221° |
| 2026-05-03 21:00 | 55.06498 | 37.11587 | 29019 ft | 459 kts | 221° |
| 2026-05-03 21:01 | 55.04011 | 37.08046 | 29158 ft | 461 kts | 221° |
| 2026-05-03 21:01 | 55.01520 | 37.04501 | 29307 ft | 463 kts | 221° |
| 2026-05-03 21:01 | 54.99049 | 37.00989 | 29445 ft | 465 kts | 221° |
| 2026-05-03 21:01 | 54.96535 | 36.97424 | 29580 ft | 467 kts | 221° |
| 2026-05-03 21:02 | 54.93978 | 36.93805 | 29728 ft | 468 kts | 221° |
| 2026-05-03 21:02 | 54.91482 | 36.90277 | 29887 ft | 469 kts | 221° |
| 2026-05-03 21:02 | 54.88943 | 36.86697 | 30069 ft | 469 kts | 221° |
| 2026-05-03 21:02 | 54.86407 | 36.83130 | 30249 ft | 469 kts | 221° |
| 2026-05-03 21:03 | 54.83862 | 36.79551 | 30438 ft | 468 kts | 221° |
| 2026-05-03 21:03 | 54.81331 | 36.75992 | 30623 ft | 468 kts | 221° |
| 2026-05-03 21:03 | 54.78801 | 36.72440 | 30809 ft | 467 kts | 221° |
| 2026-05-03 21:03 | 54.76306 | 36.68950 | 31001 ft | 467 kts | 221° |
| 2026-05-03 21:04 | 54.73785 | 36.65410 | 31167 ft | 466 kts | 223° |
| 2026-05-03 21:04 | 54.71469 | 36.61515 | 31338 ft | 464 kts | 228° |
| 2026-05-03 21:04 | 54.69219 | 36.57507 | 31527 ft | 463 kts | 228° |
| 2026-05-03 21:04 | 54.66970 | 36.53511 | 31706 ft | 463 kts | 228° |
| 2026-05-03 21:05 | 54.64726 | 36.49528 | 31885 ft | 463 kts | 228° |
| 2026-05-03 21:05 | 54.62477 | 36.45544 | 32074 ft | 462 kts | 227° |
| 2026-05-03 21:05 | 54.60228 | 36.41571 | 32246 ft | 462 kts | 227° |
| 2026-05-03 21:05 | 54.57986 | 36.37612 | 32415 ft | 461 kts | 227° |
| 2026-05-03 21:06 | 54.55748 | 36.33663 | 32586 ft | 461 kts | 227° |
| 2026-05-03 21:06 | 54.53501 | 36.29705 | 32744 ft | 461 kts | 227° |
| 2026-05-03 21:06 | 54.51256 | 36.25761 | 32907 ft | 461 kts | 227° |
| 2026-05-03 21:06 | 54.49013 | 36.21831 | 33075 ft | 460 kts | 227° |
| 2026-05-03 21:07 | 54.46793 | 36.17946 | 33228 ft | 460 kts | 227° |
| 2026-05-03 21:07 | 54.44547 | 36.14024 | 33404 ft | 460 kts | 227° |
| 2026-05-03 21:07 | 54.42303 | 36.10117 | 33549 ft | 459 kts | 227° |
| 2026-05-03 21:07 | 54.40062 | 36.06219 | 33719 ft | 459 kts | 227° |
| 2026-05-03 21:08 | 54.37818 | 36.02321 | 33883 ft | 458 kts | 227° |
| 2026-05-03 21:08 | 54.35573 | 35.98427 | 34019 ft | 458 kts | 227° |
| 2026-05-03 21:08 | 54.33329 | 35.94538 | 34136 ft | 458 kts | 227° |
| 2026-05-03 21:08 | 54.31089 | 35.90660 | 34251 ft | 458 kts | 227° |
| 2026-05-03 21:09 | 54.28843 | 35.86779 | 34377 ft | 458 kts | 227° |
| 2026-05-03 21:09 | 54.26623 | 35.82952 | 34497 ft | 458 kts | 227° |
| 2026-05-03 21:09 | 54.24377 | 35.79085 | 34624 ft | 457 kts | 227° |
| 2026-05-03 21:09 | 54.22136 | 35.75237 | 34744 ft | 457 kts | 226° |
| 2026-05-03 21:10 | 54.19892 | 35.71393 | 34898 ft | 455 kts | 226° |
| 2026-05-03 21:10 | 54.17648 | 35.67570 | 34973 ft | 456 kts | 226° |
| 2026-05-03 21:10 | 54.12987 | 35.60190 | 34987 ft | 457 kts | 223° |
| 2026-05-03 21:11 | 54.08230 | 35.53086 | 34991 ft | 457 kts | 223° |
| 2026-05-03 21:11 | 54.03447 | 35.45923 | 34990 ft | 457 kts | 223° |
| 2026-05-03 21:12 | 53.98708 | 35.38720 | 34995 ft | 457 kts | 223° |
| 2026-05-03 21:12 | 53.93966 | 35.31490 | 34993 ft | 457 kts | 224° |
| 2026-05-03 21:13 | 53.89306 | 35.24234 | 34997 ft | 458 kts | 224° |
| 2026-05-03 21:13 | 53.84633 | 35.16885 | 34996 ft | 458 kts | 224° |
| 2026-05-03 21:14 | 53.79941 | 35.09586 | 35002 ft | 458 kts | 224° |
| 2026-05-03 21:14 | 53.75225 | 35.02313 | 35001 ft | 458 kts | 224° |
| 2026-05-03 21:15 | 53.70538 | 34.95096 | 35009 ft | 458 kts | 224° |
| 2026-05-03 21:15 | 53.65817 | 34.87849 | 35005 ft | 459 kts | 223° |
| 2026-05-03 21:16 | 53.61884 | 34.81827 | 35013 ft | 459 kts | 223° |
| 2026-05-03 21:16 | 53.57161 | 34.74612 | 35014 ft | 459 kts | 223° |
| 2026-05-03 21:17 | 53.52422 | 34.67380 | 35016 ft | 459 kts | 223° |
| 2026-05-03 21:17 | 53.47716 | 34.60238 | 35019 ft | 459 kts | 223° |
| 2026-05-03 21:18 | 53.42961 | 34.53048 | 35027 ft | 459 kts | 223° |
| 2026-05-03 21:18 | 53.38206 | 34.45889 | 35023 ft | 459 kts | 223° |
| 2026-05-03 21:19 | 53.33477 | 34.38780 | 35017 ft | 459 kts | 223° |
| 2026-05-03 21:19 | 53.28709 | 34.31644 | 35020 ft | 459 kts | 223° |
| 2026-05-03 21:20 | 53.23955 | 34.24535 | 35023 ft | 459 kts | 223° |
| 2026-05-03 21:20 | 53.19192 | 34.17439 | 35029 ft | 459 kts | 223° |
| 2026-05-03 21:21 | 53.14432 | 34.10367 | 35020 ft | 458 kts | 223° |
| 2026-05-03 21:21 | 53.09690 | 34.03343 | 35035 ft | 459 kts | 223° |
| 2026-05-03 21:22 | 53.04912 | 33.96297 | 35035 ft | 459 kts | 222° |
| 2026-05-03 21:22 | 53.00116 | 33.89247 | 35044 ft | 460 kts | 223° |
| 2026-05-03 21:23 | 52.95461 | 33.81987 | 35039 ft | 459 kts | 226° |
| 2026-05-03 21:23 | 52.91102 | 33.74338 | 35024 ft | 459 kts | 229° |
| 2026-05-03 21:24 | 52.86746 | 33.66583 | 35036 ft | 459 kts | 228° |
| 2026-05-03 21:24 | 52.82328 | 33.58975 | 35036 ft | 460 kts | 227° |
| 2026-05-03 21:25 | 52.77843 | 33.51403 | 35031 ft | 460 kts | 227° |
| 2026-05-03 21:25 | 52.73361 | 33.43836 | 35036 ft | 460 kts | 227° |
| 2026-05-03 21:26 | 52.68883 | 33.36256 | 35040 ft | 461 kts | 227° |
| 2026-05-03 21:26 | 52.64406 | 33.28706 | 35046 ft | 461 kts | 226° |
| 2026-05-03 21:27 | 52.59942 | 33.21207 | 35046 ft | 461 kts | 226° |
| 2026-05-03 21:27 | 52.55449 | 33.13667 | 35043 ft | 461 kts | 226° |
| 2026-05-03 21:28 | 52.50955 | 33.06147 | 35053 ft | 461 kts | 226° |
| 2026-05-03 21:28 | 52.46479 | 32.98685 | 35053 ft | 461 kts | 226° |
| 2026-05-03 21:29 | 52.41973 | 32.91197 | 35054 ft | 461 kts | 226° |
| 2026-05-03 21:29 | 52.37451 | 32.83726 | 35047 ft | 461 kts | 226° |
| 2026-05-03 21:30 | 52.32967 | 32.76334 | 35055 ft | 461 kts | 226° |
| 2026-05-03 21:30 | 52.28446 | 32.68898 | 35059 ft | 461 kts | 226° |
| 2026-05-03 21:31 | 52.23772 | 32.61723 | 35063 ft | 461 kts | 221° |
| 2026-05-03 21:31 | 52.18865 | 32.54964 | 35060 ft | 461 kts | 220° |
| 2026-05-03 21:32 | 52.13926 | 32.48278 | 35063 ft | 461 kts | 220° |
| 2026-05-03 21:32 | 52.09058 | 32.41540 | 35070 ft | 461 kts | 221° |
| 2026-05-03 21:33 | 52.04152 | 32.34786 | 35074 ft | 461 kts | 219° |
| 2026-05-03 21:33 | 51.99154 | 32.28332 | 35072 ft | 461 kts | 218° |
| 2026-05-03 21:34 | 51.94091 | 32.21943 | 35077 ft | 461 kts | 218° |
| 2026-05-03 21:34 | 51.89028 | 32.15512 | 35084 ft | 461 kts | 219° |
| 2026-05-03 21:35 | 51.84000 | 32.09064 | 35080 ft | 461 kts | 219° |
| 2026-05-03 21:35 | 51.78970 | 32.02627 | 35081 ft | 460 kts | 218° |
| 2026-05-03 21:36 | 51.73965 | 31.96253 | 35081 ft | 460 kts | 218° |
| 2026-05-03 21:36 | 51.68923 | 31.89847 | 35082 ft | 460 kts | 218° |
| 2026-05-03 21:37 | 51.63881 | 31.83470 | 35082 ft | 460 kts | 218° |
| 2026-05-03 21:37 | 51.58827 | 31.77114 | 35081 ft | 460 kts | 218° |
| 2026-05-03 21:38 | 51.53805 | 31.70826 | 35082 ft | 460 kts | 218° |
| 2026-05-03 21:38 | 51.48757 | 31.64494 | 35082 ft | 460 kts | 218° |
| 2026-05-03 21:39 | 51.43699 | 31.58153 | 35087 ft | 460 kts | 218° |
| 2026-05-03 21:39 | 51.38675 | 31.51880 | 35087 ft | 460 kts | 218° |
| 2026-05-03 21:40 | 51.33609 | 31.45580 | 35096 ft | 460 kts | 218° |
| 2026-05-03 21:40 | 51.28533 | 31.39306 | 35091 ft | 460 kts | 218° |
| 2026-05-03 21:41 | 51.23461 | 31.33046 | 35092 ft | 461 kts | 218° |
| 2026-05-03 21:41 | 51.18414 | 31.26831 | 35095 ft | 461 kts | 218° |
| 2026-05-03 21:42 | 51.13331 | 31.20575 | 35089 ft | 461 kts | 218° |
| 2026-05-03 21:42 | 51.08245 | 31.14340 | 35100 ft | 461 kts | 217° |
| 2026-05-03 21:43 | 51.03172 | 31.08154 | 35096 ft | 461 kts | 217° |
| 2026-05-03 21:43 | 50.98071 | 31.01948 | 35092 ft | 461 kts | 217° |
| 2026-05-03 21:44 | 50.92793 | 30.96193 | 35091 ft | 460 kts | 207° |
| 2026-05-03 21:44 | 50.87123 | 30.91408 | 35089 ft | 461 kts | 207° |
| 2026-05-03 21:45 | 50.81502 | 30.86673 | 35092 ft | 461 kts | 207° |
| 2026-05-03 21:45 | 50.75845 | 30.81910 | 35094 ft | 460 kts | 207° |
| 2026-05-03 21:46 | 50.70184 | 30.77162 | 35097 ft | 460 kts | 207° |
| 2026-05-03 21:46 | 50.64553 | 30.72447 | 35100 ft | 460 kts | 207° |
| 2026-05-03 21:47 | 50.58880 | 30.67715 | 35096 ft | 460 kts | 207° |
| 2026-05-03 21:47 | 50.53216 | 30.62994 | 35096 ft | 460 kts | 207° |
| 2026-05-03 21:48 | 50.47582 | 30.58307 | 35097 ft | 460 kts | 207° |
| 2026-05-03 21:48 | 50.41916 | 30.53625 | 35109 ft | 460 kts | 207° |
| 2026-05-03 21:49 | 50.36229 | 30.48939 | 35103 ft | 460 kts | 207° |
| 2026-05-03 21:49 | 50.30586 | 30.44287 | 35101 ft | 460 kts | 207° |
| 2026-05-03 21:50 | 50.24912 | 30.39619 | 35101 ft | 460 kts | 206° |
| 2026-05-03 21:50 | 50.19235 | 30.34966 | 35099 ft | 461 kts | 206° |
| 2026-05-03 21:51 | 50.13553 | 30.30333 | 35105 ft | 461 kts | 206° |
| 2026-05-03 21:51 | 50.07866 | 30.25711 | 35101 ft | 461 kts | 206° |
| 2026-05-03 21:52 | 50.02211 | 30.21117 | 35099 ft | 461 kts | 206° |
| 2026-05-03 21:52 | 49.96521 | 30.16497 | 35102 ft | 460 kts | 206° |
| 2026-05-03 21:53 | 49.90823 | 30.11891 | 35100 ft | 461 kts | 206° |
| 2026-05-03 21:53 | 49.85166 | 30.07334 | 35097 ft | 461 kts | 206° |
| 2026-05-03 21:54 | 49.79466 | 30.02765 | 35104 ft | 461 kts | 206° |
| 2026-05-03 21:54 | 49.73765 | 29.98189 | 35106 ft | 461 kts | 206° |
| 2026-05-03 21:55 | 49.68063 | 29.93617 | 35104 ft | 461 kts | 206° |
| 2026-05-03 21:55 | 49.62343 | 29.89060 | 35103 ft | 461 kts | 206° |
| 2026-05-03 21:56 | 49.56677 | 29.84559 | 35110 ft | 461 kts | 206° |
| 2026-05-03 21:56 | 49.50967 | 29.80034 | 35108 ft | 461 kts | 206° |
| 2026-05-03 21:57 | 49.45253 | 29.75508 | 35109 ft | 461 kts | 206° |
| 2026-05-03 21:57 | 49.39549 | 29.70988 | 35112 ft | 461 kts | 206° |
| 2026-05-03 21:58 | 49.33835 | 29.66461 | 35110 ft | 462 kts | 206° |
| 2026-05-03 21:58 | 49.28120 | 29.61942 | 35114 ft | 462 kts | 206° |
| 2026-05-03 21:59 | 49.22407 | 29.57433 | 35124 ft | 462 kts | 206° |
| 2026-05-03 21:59 | 49.16718 | 29.52967 | 35124 ft | 462 kts | 206° |
| 2026-05-03 22:00 | 49.10992 | 29.48473 | 35130 ft | 462 kts | 206° |
| 2026-05-03 22:00 | 49.06619 | 29.45048 | 35130 ft | 463 kts | 205° |